Highlandville, Missouri
Current Conditions -  °F | °C
As of 7:15 PM on Friday 19 Dec 2014 (Local Time) from KFWB Reporting Station
Light Rain Light Rain  
Wind Chill: 33°   Ceiling: 300
Heat Index: 37°   Visibility: 1mi
Dew Point: 37°   Wind: 6mph
Humidity: 100%   Direction: 110°ESE
Pressure: 30.2"   Gusts: NA
Location:  36.93°N, 93.28°W
Report Text: KFWB 200115Z AUTO 11005KT 1SM -RA OVC003 03/03 A3020 RMK AO2
Loading
Personal Weather Stations






























Interactive Weather Map New forecast layout! Learn more

10-Day Weather Forecast

Advertisements
Track Severe Weather on mobile